sensor_id;sensor_type;location;lat;lon;timestamp;temperature;humidity
26821;DHT22;37186;51.394;5.454;2022-10-16T00:00:26;15.30;82.30
26821;DHT22;37186;51.394;5.454;2022-10-16T00:03:27;15.30;82.30
26821;DHT22;37186;51.394;5.454;2022-10-16T00:06:28;15.30;82.30
26821;DHT22;37186;51.394;5.454;2022-10-16T00:09:29;15.30;82.30
26821;DHT22;37186;51.394;5.454;2022-10-16T00:12:29;15.30;82.30
26821;DHT22;37186;51.394;5.454;2022-10-16T00:15:30;15.30;82.30
26821;DHT22;37186;51.394;5.454;2022-10-16T00:18:33;15.30;82.30
26821;DHT22;37186;51.394;5.454;2022-10-16T00:21:34;15.20;82.30
26821;DHT22;37186;51.394;5.454;2022-10-16T00:24:34;15.20;82.40
26821;DHT22;37186;51.394;5.454;2022-10-16T00:27:36;15.20;82.40
26821;DHT22;37186;51.394;5.454;2022-10-16T00:30:40;15.20;82.40
26821;DHT22;37186;51.394;5.454;2022-10-16T00:33:40;15.20;82.40
26821;DHT22;37186;51.394;5.454;2022-10-16T00:36:41;15.20;82.40
26821;DHT22;37186;51.394;5.454;2022-10-16T00:39:42;15.20;83.20
26821;DHT22;37186;51.394;5.454;2022-10-16T00:42:42;15.20;82.40
26821;DHT22;37186;51.394;5.454;2022-10-16T00:45:43;15.20;82.30
26821;DHT22;37186;51.394;5.454;2022-10-16T00:48:50;15.20;82.40
26821;DHT22;37186;51.394;5.454;2022-10-16T00:51:53;15.20;82.30
26821;DHT22;37186;51.394;5.454;2022-10-16T00:54:54;15.10;83.10
26821;DHT22;37186;51.394;5.454;2022-10-16T00:57:55;15.20;82.40
26821;DHT22;37186;51.394;5.454;2022-10-16T01:00:56;15.10;82.30
26821;DHT22;37186;51.394;5.454;2022-10-16T01:03:56;15.10;82.30
26821;DHT22;37186;51.394;5.454;2022-10-16T01:07:20;15.10;82.20
26821;DHT22;37186;51.394;5.454;2022-10-16T01:10:41;15.10;82.30
26821;DHT22;37186;51.394;5.454;2022-10-16T01:13:48;15.10;82.30
26821;DHT22;37186;51.394;5.454;2022-10-16T01:16:58;15.10;82.30
26821;DHT22;37186;51.394;5.454;2022-10-16T01:20:30;15.10;82.40
26821;DHT22;37186;51.394;5.454;2022-10-16T01:33:20;15.00;82.30
26821;DHT22;37186;51.394;5.454;2022-10-16T01:36:26;15.00;82.30
26821;DHT22;37186;51.394;5.454;2022-10-16T01:39:32;15.00;82.30
26821;DHT22;37186;51.394;5.454;2022-10-16T01:42:37;15.00;82.30
26821;DHT22;37186;51.394;5.454;2022-10-16T01:45:40;14.90;82.20
26821;DHT22;37186;51.394;5.454;2022-10-16T01:48:41;14.90;82.30
26821;DHT22;37186;51.394;5.454;2022-10-16T01:51:43;14.90;82.40
26821;DHT22;37186;51.394;5.454;2022-10-16T01:54:47;14.90;82.40
26821;DHT22;37186;51.394;5.454;2022-10-16T01:57:51;14.90;82.30
26821;DHT22;37186;51.394;5.454;2022-10-16T02:00:54;14.90;82.50
26821;DHT22;37186;51.394;5.454;2022-10-16T02:03:57;14.80;82.30
26821;DHT22;37186;51.394;5.454;2022-10-16T02:06:59;14.90;82.40
26821;DHT22;37186;51.394;5.454;2022-10-16T02:10:01;14.90;82.40
26821;DHT22;37186;51.394;5.454;2022-10-16T02:13:21;14.90;82.40
26821;DHT22;37186;51.394;5.454;2022-10-16T02:16:39;14.90;82.40
26821;DHT22;37186;51.394;5.454;2022-10-16T02:19:40;14.80;82.30
26821;DHT22;37186;51.394;5.454;2022-10-16T02:22:47;14.80;82.40
26821;DHT22;37186;51.394;5.454;2022-10-16T02:25:51;14.80;82.40
26821;DHT22;37186;51.394;5.454;2022-10-16T02:28:56;14.80;82.40
26821;DHT22;37186;51.394;5.454;2022-10-16T02:32:01;14.80;82.40
26821;DHT22;37186;51.394;5.454;2022-10-16T02:35:03;14.80;82.30
26821;DHT22;37186;51.394;5.454;2022-10-16T02:38:05;14.80;82.30
26821;DHT22;37186;51.394;5.454;2022-10-16T02:41:06;14.80;82.40
26821;DHT22;37186;51.394;5.454;2022-10-16T02:44:07;14.80;82.40
26821;DHT22;37186;51.394;5.454;2022-10-16T02:47:07;14.80;82.50
26821;DHT22;37186;51.394;5.454;2022-10-16T02:50:08;14.80;82.40
26821;DHT22;37186;51.394;5.454;2022-10-16T02:53:08;14.80;82.40
26821;DHT22;37186;51.394;5.454;2022-10-16T02:56:09;14.70;82.40
26821;DHT22;37186;51.394;5.454;2022-10-16T02:59:09;14.70;82.40
26821;DHT22;37186;51.394;5.454;2022-10-16T03:02:10;14.70;82.50
26821;DHT22;37186;51.394;5.454;2022-10-16T03:05:11;14.70;82.40
26821;DHT22;37186;51.394;5.454;2022-10-16T03:08:12;14.70;82.40
26821;DHT22;37186;51.394;5.454;2022-10-16T03:11:13;14.70;82.40
26821;DHT22;37186;51.394;5.454;2022-10-16T03:14:13;14.70;82.40
26821;DHT22;37186;51.394;5.454;2022-10-16T03:17:14;14.60;83.20
26821;DHT22;37186;51.394;5.454;2022-10-16T03:20:17;14.70;82.40
26821;DHT22;37186;51.394;5.454;2022-10-16T03:23:17;14.70;82.40
26821;DHT22;37186;51.394;5.454;2022-10-16T03:26:18;14.70;82.40
26821;DHT22;37186;51.394;5.454;2022-10-16T03:29:18;14.60;82.40
26821;DHT22;37186;51.394;5.454;2022-10-16T03:32:19;14.60;82.40
26821;DHT22;37186;51.394;5.454;2022-10-16T03:35:21;14.60;82.40
26821;DHT22;37186;51.394;5.454;2022-10-16T03:38:21;14.60;82.40
26821;DHT22;37186;51.394;5.454;2022-10-16T03:41:22;14.60;82.40
26821;DHT22;37186;51.394;5.454;2022-10-16T03:44:22;14.60;82.50
26821;DHT22;37186;51.394;5.454;2022-10-16T03:47:23;14.60;82.40
26821;DHT22;37186;51.394;5.454;2022-10-16T03:50:24;14.60;82.60
26821;DHT22;37186;51.394;5.454;2022-10-16T03:53:24;14.60;82.40
26821;DHT22;37186;51.394;5.454;2022-10-16T03:56:25;14.60;82.50
26821;DHT22;37186;51.394;5.454;2022-10-16T03:59:25;14.60;82.50
26821;DHT22;37186;51.394;5.454;2022-10-16T04:02:26;14.60;82.50
26821;DHT22;37186;51.394;5.454;2022-10-16T04:05:26;14.60;82.60
26821;DHT22;37186;51.394;5.454;2022-10-16T04:08:27;14.60;82.60
26821;DHT22;37186;51.394;5.454;2022-10-16T04:11:27;14.60;82.60
26821;DHT22;37186;51.394;5.454;2022-10-16T04:14:28;14.60;82.70
26821;DHT22;37186;51.394;5.454;2022-10-16T04:17:28;14.60;82.60
26821;DHT22;37186;51.394;5.454;2022-10-16T04:20:29;14.60;82.60
26821;DHT22;37186;51.394;5.454;2022-10-16T04:23:30;14.60;82.70
26821;DHT22;37186;51.394;5.454;2022-10-16T04:26:31;14.60;82.60
26821;DHT22;37186;51.394;5.454;2022-10-16T04:29:31;14.60;82.70
26821;DHT22;37186;51.394;5.454;2022-10-16T04:32:32;14.60;82.60
26821;DHT22;37186;51.394;5.454;2022-10-16T04:35:32;14.60;82.60
26821;DHT22;37186;51.394;5.454;2022-10-16T04:38:33;14.60;82.70
26821;DHT22;37186;51.394;5.454;2022-10-16T04:41:33;14.60;82.70
26821;DHT22;37186;51.394;5.454;2022-10-16T04:44:34;14.60;82.60
26821;DHT22;37186;51.394;5.454;2022-10-16T04:47:34;14.60;82.80
26821;DHT22;37186;51.394;5.454;2022-10-16T04:50:35;14.60;82.70
26821;DHT22;37186;51.394;5.454;2022-10-16T04:53:36;14.60;82.70
26821;DHT22;37186;51.394;5.454;2022-10-16T04:56:36;14.60;82.70
26821;DHT22;37186;51.394;5.454;2022-10-16T04:59:43;14.60;82.70
26821;DHT22;37186;51.394;5.454;2022-10-16T05:02:43;14.60;82.80
26821;DHT22;37186;51.394;5.454;2022-10-16T05:05:45;14.60;82.70
26821;DHT22;37186;51.394;5.454;2022-10-16T05:08:46;14.60;82.70
26821;DHT22;37186;51.394;5.454;2022-10-16T05:11:46;14.60;82.70
26821;DHT22;37186;51.394;5.454;2022-10-16T05:14:47;14.60;82.70
26821;DHT22;37186;51.394;5.454;2022-10-16T05:17:47;14.60;82.70
26821;DHT22;37186;51.394;5.454;2022-10-16T05:20:52;14.60;82.70
26821;DHT22;37186;51.394;5.454;2022-10-16T05:23:53;14.60;82.70
26821;DHT22;37186;51.394;5.454;2022-10-16T05:26:54;14.60;82.70
26821;DHT22;37186;51.394;5.454;2022-10-16T05:29:55;14.60;82.70
26821;DHT22;37186;51.394;5.454;2022-10-16T05:32:55;14.60;82.70
26821;DHT22;37186;51.394;5.454;2022-10-16T05:35:56;14.60;82.70
26821;DHT22;37186;51.394;5.454;2022-10-16T05:38:56;14.60;82.70
26821;DHT22;37186;51.394;5.454;2022-10-16T05:41:57;14.60;82.70
26821;DHT22;37186;51.394;5.454;2022-10-16T05:44:58;14.60;82.80
26821;DHT22;37186;51.394;5.454;2022-10-16T05:47:59;14.60;82.70
26821;DHT22;37186;51.394;5.454;2022-10-16T05:51:07;14.60;82.70
26821;DHT22;37186;51.394;5.454;2022-10-16T05:54:09;14.60;82.70
26821;DHT22;37186;51.394;5.454;2022-10-16T05:57:09;14.60;82.70
26821;DHT22;37186;51.394;5.454;2022-10-16T06:00:10;14.60;82.70
26821;DHT22;37186;51.394;5.454;2022-10-16T06:03:11;14.60;82.70
26821;DHT22;37186;51.394;5.454;2022-10-16T06:06:16;14.60;82.80
26821;DHT22;37186;51.394;5.454;2022-10-16T06:09:17;14.60;82.70
26821;DHT22;37186;51.394;5.454;2022-10-16T06:12:18;14.60;82.70
26821;DHT22;37186;51.394;5.454;2022-10-16T06:15:18;14.50;82.60
26821;DHT22;37186;51.394;5.454;2022-10-16T06:18:19;14.60;82.70
26821;DHT22;37186;51.394;5.454;2022-10-16T06:21:22;14.50;82.60
26821;DHT22;37186;51.394;5.454;2022-10-16T06:24:25;14.50;82.60
26821;DHT22;37186;51.394;5.454;2022-10-16T06:27:25;14.50;82.80
26821;DHT22;37186;51.394;5.454;2022-10-16T06:30:26;14.50;82.70
26821;DHT22;37186;51.394;5.454;2022-10-16T06:33:26;14.50;82.70
26821;DHT22;37186;51.394;5.454;2022-10-16T06:36:27;14.50;82.70
26821;DHT22;37186;51.394;5.454;2022-10-16T06:39:28;14.50;82.70
26821;DHT22;37186;51.394;5.454;2022-10-16T06:42:28;14.50;82.70
26821;DHT22;37186;51.394;5.454;2022-10-16T06:45:29;14.50;82.80
26821;DHT22;37186;51.394;5.454;2022-10-16T06:48:29;14.50;82.70
26821;DHT22;37186;51.394;5.454;2022-10-16T06:51:30;14.50;82.80
26821;DHT22;37186;51.394;5.454;2022-10-16T06:54:32;14.50;82.80
26821;DHT22;37186;51.394;5.454;2022-10-16T06:57:32;14.50;82.70
26821;DHT22;37186;51.394;5.454;2022-10-16T07:00:33;14.50;82.80
26821;DHT22;37186;51.394;5.454;2022-10-16T07:03:36;14.40;82.70
26821;DHT22;37186;51.394;5.454;2022-10-16T07:06:37;14.50;82.80
26821;DHT22;37186;51.394;5.454;2022-10-16T07:09:38;14.50;82.90
26821;DHT22;37186;51.394;5.454;2022-10-16T07:12:38;14.40;82.90
26821;DHT22;37186;51.394;5.454;2022-10-16T07:15:39;14.50;82.90
26821;DHT22;37186;51.394;5.454;2022-10-16T07:18:41;14.50;83.70
26821;DHT22;37186;51.394;5.454;2022-10-16T07:21:43;14.50;82.90
26821;DHT22;37186;51.394;5.454;2022-10-16T07:24:43;14.50;82.90
26821;DHT22;37186;51.394;5.454;2022-10-16T07:27:44;14.50;82.90
26821;DHT22;37186;51.394;5.454;2022-10-16T07:30:45;14.50;83.00
26821;DHT22;37186;51.394;5.454;2022-10-16T07:33:46;14.50;83.10
26821;DHT22;37186;51.394;5.454;2022-10-16T07:36:49;14.50;83.20
26821;DHT22;37186;51.394;5.454;2022-10-16T07:39:50;14.50;83.00
26821;DHT22;37186;51.394;5.454;2022-10-16T07:42:50;14.50;83.10
26821;DHT22;37186;51.394;5.454;2022-10-16T07:45:51;14.60;83.20
26821;DHT22;37186;51.394;5.454;2022-10-16T07:48:51;14.60;83.20
26821;DHT22;37186;51.394;5.454;2022-10-16T07:51:52;14.50;83.10
26821;DHT22;37186;51.394;5.454;2022-10-16T07:54:52;14.60;83.20
26821;DHT22;37186;51.394;5.454;2022-10-16T07:57:53;14.60;83.40
26821;DHT22;37186;51.394;5.454;2022-10-16T08:00:55;14.60;83.30
26821;DHT22;37186;51.394;5.454;2022-10-16T08:03:56;14.60;83.30
26821;DHT22;37186;51.394;5.454;2022-10-16T08:06:56;14.60;83.30
26821;DHT22;37186;51.394;5.454;2022-10-16T08:09:57;14.70;83.40
26821;DHT22;37186;51.394;5.454;2022-10-16T08:12:59;14.70;83.40
26821;DHT22;37186;51.394;5.454;2022-10-16T08:15:59;14.70;84.20
26821;DHT22;37186;51.394;5.454;2022-10-16T08:19:00;14.80;83.60
26821;DHT22;37186;51.394;5.454;2022-10-16T08:22:01;14.80;83.50
26821;DHT22;37186;51.394;5.454;2022-10-16T08:25:01;14.80;83.50
26821;DHT22;37186;51.394;5.454;2022-10-16T08:28:07;14.80;83.50
26821;DHT22;37186;51.394;5.454;2022-10-16T08:31:13;14.90;83.60
26821;DHT22;37186;51.394;5.454;2022-10-16T08:34:14;14.90;83.70
26821;DHT22;37186;51.394;5.454;2022-10-16T08:37:14;14.90;83.70
26821;DHT22;37186;51.394;5.454;2022-10-16T08:40:35;14.90;83.90
26821;DHT22;37186;51.394;5.454;2022-10-16T08:44:07;15.00;83.80
26821;DHT22;37186;51.394;5.454;2022-10-16T08:47:21;15.00;83.80
26821;DHT22;37186;51.394;5.454;2022-10-16T08:50:28;15.00;83.80
26821;DHT22;37186;51.394;5.454;2022-10-16T08:53:56;15.00;83.80
26821;DHT22;37186;51.394;5.454;2022-10-16T08:57:06;15.10;83.90
26821;DHT22;37186;51.394;5.454;2022-10-16T09:00:14;15.10;83.90
26821;DHT22;37186;51.394;5.454;2022-10-16T09:03:39;15.20;83.90
26821;DHT22;37186;51.394;5.454;2022-10-16T09:06:47;15.20;84.00
26821;DHT22;37186;51.394;5.454;2022-10-16T09:10:00;15.30;83.90
26821;DHT22;37186;51.394;5.454;2022-10-16T09:13:17;15.30;84.00
26821;DHT22;37186;51.394;5.454;2022-10-16T09:16:30;15.30;83.90
26821;DHT22;37186;51.394;5.454;2022-10-16T09:19:39;15.30;84.00
26821;DHT22;37186;51.394;5.454;2022-10-16T09:22:42;15.40;84.00
26821;DHT22;37186;51.394;5.454;2022-10-16T09:25:45;15.40;84.80
26821;DHT22;37186;51.394;5.454;2022-10-16T09:28:47;15.50;84.00
26821;DHT22;37186;51.394;5.454;2022-10-16T09:31:48;15.50;84.10
26821;DHT22;37186;51.394;5.454;2022-10-16T09:34:52;15.50;84.00
26821;DHT22;37186;51.394;5.454;2022-10-16T09:37:54;15.60;84.10
26821;DHT22;37186;51.394;5.454;2022-10-16T09:41:00;15.60;84.00
26821;DHT22;37186;51.394;5.454;2022-10-16T09:44:02;15.60;84.00
26821;DHT22;37186;51.394;5.454;2022-10-16T09:47:19;15.70;84.10
26821;DHT22;37186;51.394;5.454;2022-10-16T09:50:24;15.70;84.10
26821;DHT22;37186;51.394;5.454;2022-10-16T09:53:39;15.70;84.10
26821;DHT22;37186;51.394;5.454;2022-10-16T09:56:40;15.80;84.20
26821;DHT22;37186;51.394;5.454;2022-10-16T09:59:55;15.80;84.20
26821;DHT22;37186;51.394;5.454;2022-10-16T10:02:56;15.80;84.20
26821;DHT22;37186;51.394;5.454;2022-10-16T10:05:57;15.80;84.20
26821;DHT22;37186;51.394;5.454;2022-10-16T10:09:42;15.90;84.10
26821;DHT22;37186;51.394;5.454;2022-10-16T10:12:41;15.90;84.10
26821;DHT22;37186;51.394;5.454;2022-10-16T10:15:42;15.90;84.00
26821;DHT22;37186;51.394;5.454;2022-10-16T10:18:43;16.00;84.20
26821;DHT22;37186;51.394;5.454;2022-10-16T10:21:43;16.00;84.20
26821;DHT22;37186;51.394;5.454;2022-10-16T10:24:54;16.10;84.20
26821;DHT22;37186;51.394;5.454;2022-10-16T10:31:09;16.10;84.20
26821;DHT22;37186;51.394;5.454;2022-10-16T10:34:51;16.20;84.30
26821;DHT22;37186;51.394;5.454;2022-10-16T10:39:17;16.20;84.20
26821;DHT22;37186;51.394;5.454;2022-10-16T10:42:13;16.30;84.30
26821;DHT22;37186;51.394;5.454;2022-10-16T10:48:46;16.40;84.20
26821;DHT22;37186;51.394;5.454;2022-10-16T11:05:45;16.70;84.30
26821;DHT22;37186;51.394;5.454;2022-10-16T11:12:34;16.70;84.20
26821;DHT22;37186;51.394;5.454;2022-10-16T11:15:39;16.80;84.10
26821;DHT22;37186;51.394;5.454;2022-10-16T11:18:47;16.80;84.10
26821;DHT22;37186;51.394;5.454;2022-10-16T11:22:00;16.90;84.20
26821;DHT22;37186;51.394;5.454;2022-10-16T11:28:20;16.90;84.00
26821;DHT22;37186;51.394;5.454;2022-10-16T11:31:29;17.00;84.10
26821;DHT22;37186;51.394;5.454;2022-10-16T11:34:38;17.00;84.20
26821;DHT22;37186;51.394;5.454;2022-10-16T11:37:44;17.10;84.10
26821;DHT22;37186;51.394;5.454;2022-10-16T11:40:48;17.20;84.30
26821;DHT22;37186;51.394;5.454;2022-10-16T11:50:39;17.40;84.50
26821;DHT22;37186;51.394;5.454;2022-10-16T11:53:49;17.50;84.50
26821;DHT22;37186;51.394;5.454;2022-10-16T11:56:54;17.60;84.60
26821;DHT22;37186;51.394;5.454;2022-10-16T12:00:02;17.70;83.60
26821;DHT22;37186;51.394;5.454;2022-10-16T12:03:17;17.80;83.80
26821;DHT22;37186;51.394;5.454;2022-10-16T12:06:37;17.90;84.10
26821;DHT22;37186;51.394;5.454;2022-10-16T12:09:39;18.00;84.10
26821;DHT22;37186;51.394;5.454;2022-10-16T12:12:41;18.10;84.10
26821;DHT22;37186;51.394;5.454;2022-10-16T12:15:41;18.20;84.00
26821;DHT22;37186;51.394;5.454;2022-10-16T12:18:46;18.30;84.00
26821;DHT22;37186;51.394;5.454;2022-10-16T12:21:47;18.40;83.80
26821;DHT22;37186;51.394;5.454;2022-10-16T12:24:51;18.50;83.70
26821;DHT22;37186;51.394;5.454;2022-10-16T12:31:15;18.60;83.40
26821;DHT22;37186;51.394;5.454;2022-10-16T12:34:28;18.60;83.30
26821;DHT22;37186;51.394;5.454;2022-10-16T12:37:36;18.70;83.30
26821;DHT22;37186;51.394;5.454;2022-10-16T12:40:38;18.70;83.20
26821;DHT22;37186;51.394;5.454;2022-10-16T12:43:46;18.80;83.20
26821;DHT22;37186;51.394;5.454;2022-10-16T12:46:47;18.80;83.00
26821;DHT22;37186;51.394;5.454;2022-10-16T12:49:53;18.80;83.00
26821;DHT22;37186;51.394;5.454;2022-10-16T12:52:54;18.80;82.80
26821;DHT22;37186;51.394;5.454;2022-10-16T12:55:57;18.80;82.80
26821;DHT22;37186;51.394;5.454;2022-10-16T12:59:21;18.80;82.70
26821;DHT22;37186;51.394;5.454;2022-10-16T13:15:35;18.70;82.50
26821;DHT22;37186;51.394;5.454;2022-10-16T13:22:24;18.70;82.60
26821;DHT22;37186;51.394;5.454;2022-10-16T13:28:33;18.70;82.70
26821;DHT22;37186;51.394;5.454;2022-10-16T13:31:38;18.70;82.70
26821;DHT22;37186;51.394;5.454;2022-10-16T13:34:47;18.70;82.80
26821;DHT22;37186;51.394;5.454;2022-10-16T13:37:49;18.70;82.80
26821;DHT22;37186;51.394;5.454;2022-10-16T13:41:04;18.80;82.90
26821;DHT22;37186;51.394;5.454;2022-10-16T13:44:14;18.70;82.90
26821;DHT22;37186;51.394;5.454;2022-10-16T13:47:27;18.70;82.90
26821;DHT22;37186;51.394;5.454;2022-10-16T13:50:28;18.80;83.00
26821;DHT22;37186;51.394;5.454;2022-10-16T13:53:34;18.80;83.00
26821;DHT22;37186;51.394;5.454;2022-10-16T13:56:35;18.80;83.10
26821;DHT22;37186;51.394;5.454;2022-10-16T13:59:37;18.80;83.00
26821;DHT22;37186;51.394;5.454;2022-10-16T14:02:40;18.80;83.00
26821;DHT22;37186;51.394;5.454;2022-10-16T14:05:47;18.80;83.00
26821;DHT22;37186;51.394;5.454;2022-10-16T14:08:58;18.80;83.00
26821;DHT22;37186;51.394;5.454;2022-10-16T14:12:07;18.80;83.00
26821;DHT22;37186;51.394;5.454;2022-10-16T14:15:17;18.80;83.00
26821;DHT22;37186;51.394;5.454;2022-10-16T14:18:21;18.80;82.90
26821;DHT22;37186;51.394;5.454;2022-10-16T14:21:23;18.80;82.90
26821;DHT22;37186;51.394;5.454;2022-10-16T14:24:42;18.80;82.90
26821;DHT22;37186;51.394;5.454;2022-10-16T14:27:43;18.80;82.90
26821;DHT22;37186;51.394;5.454;2022-10-16T14:30:53;18.80;82.90
26821;DHT22;37186;51.394;5.454;2022-10-16T14:33:54;18.80;82.90
26821;DHT22;37186;51.394;5.454;2022-10-16T14:36:55;18.80;83.00
26821;DHT22;37186;51.394;5.454;2022-10-16T14:39:56;18.80;83.00
26821;DHT22;37186;51.394;5.454;2022-10-16T14:42:57;18.80;83.00
26821;DHT22;37186;51.394;5.454;2022-10-16T14:45:59;18.80;83.00
26821;DHT22;37186;51.394;5.454;2022-10-16T14:52:13;18.80;83.10
26821;DHT22;37186;51.394;5.454;2022-10-16T14:55:13;18.80;83.20
26821;DHT22;37186;51.394;5.454;2022-10-16T14:58:22;18.80;83.20
26821;DHT22;37186;51.394;5.454;2022-10-16T15:01:23;18.80;83.20
26821;DHT22;37186;51.394;5.454;2022-10-16T15:04:23;18.90;83.20
26821;DHT22;37186;51.394;5.454;2022-10-16T15:07:24;18.90;83.20
26821;DHT22;37186;51.394;5.454;2022-10-16T15:10:27;18.90;83.30
26821;DHT22;37186;51.394;5.454;2022-10-16T15:13:28;18.90;83.20
26821;DHT22;37186;51.394;5.454;2022-10-16T15:16:28;18.90;83.20
26821;DHT22;37186;51.394;5.454;2022-10-16T15:19:29;18.90;83.20
26821;DHT22;37186;51.394;5.454;2022-10-16T15:22:30;18.90;83.20
26821;DHT22;37186;51.394;5.454;2022-10-16T15:25:43;18.90;83.20
26821;DHT22;37186;51.394;5.454;2022-10-16T15:28:44;18.90;83.10
26821;DHT22;37186;51.394;5.454;2022-10-16T15:31:45;18.90;83.10
26821;DHT22;37186;51.394;5.454;2022-10-16T15:34:47;18.80;83.00
26821;DHT22;37186;51.394;5.454;2022-10-16T15:37:48;18.80;83.00
26821;DHT22;37186;51.394;5.454;2022-10-16T15:40:49;18.80;83.00
26821;DHT22;37186;51.394;5.454;2022-10-16T15:43:50;18.80;83.00
26821;DHT22;37186;51.394;5.454;2022-10-16T15:46:54;18.80;82.90
26821;DHT22;37186;51.394;5.454;2022-10-16T15:49:55;18.80;82.90
26821;DHT22;37186;51.394;5.454;2022-10-16T15:52:55;18.80;83.00
26821;DHT22;37186;51.394;5.454;2022-10-16T15:55:56;18.80;82.90
26821;DHT22;37186;51.394;5.454;2022-10-16T15:58:56;18.80;82.90
26821;DHT22;37186;51.394;5.454;2022-10-16T16:01:58;18.80;82.90
26821;DHT22;37186;51.394;5.454;2022-10-16T16:04:59;18.70;82.90
26821;DHT22;37186;51.394;5.454;2022-10-16T16:07:59;18.70;82.90
26821;DHT22;37186;51.394;5.454;2022-10-16T16:11:11;18.70;82.90
26821;DHT22;37186;51.394;5.454;2022-10-16T16:14:13;18.70;82.90
26821;DHT22;37186;51.394;5.454;2022-10-16T16:17:14;18.70;82.80
26821;DHT22;37186;51.394;5.454;2022-10-16T16:20:14;18.70;82.90
26821;DHT22;37186;51.394;5.454;2022-10-16T16:23:15;18.60;82.80
26821;DHT22;37186;51.394;5.454;2022-10-16T16:26:25;18.60;82.80
26821;DHT22;37186;51.394;5.454;2022-10-16T16:29:26;18.60;82.80
26821;DHT22;37186;51.394;5.454;2022-10-16T16:32:26;18.60;82.70
26821;DHT22;37186;51.394;5.454;2022-10-16T16:35:27;18.60;82.70
26821;DHT22;37186;51.394;5.454;2022-10-16T16:38:28;18.50;82.70
26821;DHT22;37186;51.394;5.454;2022-10-16T16:41:29;18.50;82.70
26821;DHT22;37186;51.394;5.454;2022-10-16T16:44:30;18.50;82.70
26821;DHT22;37186;51.394;5.454;2022-10-16T16:47:31;18.40;82.60
26821;DHT22;37186;51.394;5.454;2022-10-16T16:50:35;18.40;82.70
26821;DHT22;37186;51.394;5.454;2022-10-16T16:53:36;18.40;82.70
26821;DHT22;37186;51.394;5.454;2022-10-16T16:56:36;18.40;82.70
26821;DHT22;37186;51.394;5.454;2022-10-16T16:59:37;18.40;82.70
26821;DHT22;37186;51.394;5.454;2022-10-16T17:02:37;18.30;82.60
26821;DHT22;37186;51.394;5.454;2022-10-16T17:05:43;18.30;82.60
26821;DHT22;37186;51.394;5.454;2022-10-16T17:08:43;18.30;82.60
26821;DHT22;37186;51.394;5.454;2022-10-16T17:11:44;18.30;82.60
26821;DHT22;37186;51.394;5.454;2022-10-16T17:14:46;18.20;82.60
26821;DHT22;37186;51.394;5.454;2022-10-16T17:17:46;18.20;82.60
26821;DHT22;37186;51.394;5.454;2022-10-16T17:20:47;18.20;82.70
26821;DHT22;37186;51.394;5.454;2022-10-16T17:23:51;18.10;82.60
26821;DHT22;37186;51.394;5.454;2022-10-16T17:26:51;18.10;82.60
26821;DHT22;37186;51.394;5.454;2022-10-16T17:29:52;18.10;82.60
26821;DHT22;37186;51.394;5.454;2022-10-16T17:32:53;18.10;82.60
26821;DHT22;37186;51.394;5.454;2022-10-16T17:35:53;18.10;82.60
26821;DHT22;37186;51.394;5.454;2022-10-16T17:38:54;18.10;82.60
26821;DHT22;37186;51.394;5.454;2022-10-16T17:41:54;18.00;82.60
26821;DHT22;37186;51.394;5.454;2022-10-16T17:44:55;18.00;82.60
26821;DHT22;37186;51.394;5.454;2022-10-16T17:47:57;18.00;82.60
26821;DHT22;37186;51.394;5.454;2022-10-16T17:50:58;18.00;82.60
26821;DHT22;37186;51.394;5.454;2022-10-16T17:54:00;18.00;82.60
26821;DHT22;37186;51.394;5.454;2022-10-16T17:57:00;17.90;82.60
26821;DHT22;37186;51.394;5.454;2022-10-16T18:00:01;17.90;82.70
26821;DHT22;37186;51.394;5.454;2022-10-16T18:03:04;17.90;82.70
26821;DHT22;37186;51.394;5.454;2022-10-16T18:06:05;17.90;82.70
26821;DHT22;37186;51.394;5.454;2022-10-16T18:09:07;17.90;82.70
26821;DHT22;37186;51.394;5.454;2022-10-16T18:12:08;17.80;82.70
26821;DHT22;37186;51.394;5.454;2022-10-16T18:15:09;17.80;82.60
26821;DHT22;37186;51.394;5.454;2022-10-16T18:18:10;17.80;82.70
26821;DHT22;37186;51.394;5.454;2022-10-16T18:21:13;17.80;82.70
26821;DHT22;37186;51.394;5.454;2022-10-16T18:24:15;17.80;82.80
26821;DHT22;37186;51.394;5.454;2022-10-16T18:27:16;17.80;82.80
26821;DHT22;37186;51.394;5.454;2022-10-16T18:30:16;17.80;82.80
26821;DHT22;37186;51.394;5.454;2022-10-16T18:33:17;17.70;82.70
26821;DHT22;37186;51.394;5.454;2022-10-16T18:36:20;17.70;82.70
26821;DHT22;37186;51.394;5.454;2022-10-16T18:39:21;17.70;82.80
26821;DHT22;37186;51.394;5.454;2022-10-16T18:42:23;17.70;82.90
26821;DHT22;37186;51.394;5.454;2022-10-16T18:45:23;17.70;82.80
26821;DHT22;37186;51.394;5.454;2022-10-16T18:48:24;17.70;82.80
26821;DHT22;37186;51.394;5.454;2022-10-16T18:51:27;17.70;82.80
26821;DHT22;37186;51.394;5.454;2022-10-16T18:54:29;17.70;82.80
26821;DHT22;37186;51.394;5.454;2022-10-16T18:57:30;17.70;82.80
26821;DHT22;37186;51.394;5.454;2022-10-16T19:00:30;17.70;82.80
26821;DHT22;37186;51.394;5.454;2022-10-16T19:03:31;17.60;82.80
26821;DHT22;37186;51.394;5.454;2022-10-16T19:06:37;17.60;82.80
26821;DHT22;37186;51.394;5.454;2022-10-16T19:09:38;17.70;82.90
26821;DHT22;37186;51.394;5.454;2022-10-16T19:12:39;17.60;82.80
26821;DHT22;37186;51.394;5.454;2022-10-16T19:15:41;17.60;82.90
26821;DHT22;37186;51.394;5.454;2022-10-16T19:18:42;17.60;82.80
26821;DHT22;37186;51.394;5.454;2022-10-16T19:21:43;17.60;82.90
26821;DHT22;37186;51.394;5.454;2022-10-16T19:24:43;17.60;82.80
26821;DHT22;37186;51.394;5.454;2022-10-16T19:27:44;17.50;82.80
26821;DHT22;37186;51.394;5.454;2022-10-16T19:30:44;17.60;82.80
26821;DHT22;37186;51.394;5.454;2022-10-16T19:33:46;17.50;82.90
26821;DHT22;37186;51.394;5.454;2022-10-16T19:36:46;17.60;82.90
26821;DHT22;37186;51.394;5.454;2022-10-16T19:39:49;17.50;82.90
26821;DHT22;37186;51.394;5.454;2022-10-16T19:42:49;17.50;82.90
26821;DHT22;37186;51.394;5.454;2022-10-16T19:45:50;17.50;82.90
26821;DHT22;37186;51.394;5.454;2022-10-16T19:49:04;17.50;82.90
26821;DHT22;37186;51.394;5.454;2022-10-16T19:52:05;17.50;83.00
26821;DHT22;37186;51.394;5.454;2022-10-16T19:55:06;17.50;82.90
26821;DHT22;37186;51.394;5.454;2022-10-16T19:58:06;17.50;82.90
26821;DHT22;37186;51.394;5.454;2022-10-16T20:01:07;17.50;82.90
26821;DHT22;37186;51.394;5.454;2022-10-16T20:04:08;17.50;82.90
26821;DHT22;37186;51.394;5.454;2022-10-16T20:07:08;17.50;83.00
26821;DHT22;37186;51.394;5.454;2022-10-16T20:10:09;17.50;82.90
26821;DHT22;37186;51.394;5.454;2022-10-16T20:13:09;17.40;82.90
26821;DHT22;37186;51.394;5.454;2022-10-16T20:16:13;17.40;82.90
26821;DHT22;37186;51.394;5.454;2022-10-16T20:19:15;17.40;82.90
26821;DHT22;37186;51.394;5.454;2022-10-16T20:22:15;17.40;82.90
26821;DHT22;37186;51.394;5.454;2022-10-16T20:25:16;17.40;82.90
26821;DHT22;37186;51.394;5.454;2022-10-16T20:28:19;17.40;82.90